Time;durP1;ratioP1;P1;durP2;ratioP2;P2;SDS_P1;SDS_P2;PMS_P1;PMS_P2;Temp;Humidity;BMP_temperature;BMP_pressure;BME280_temperature;BME280_humidity;BME280_pressure;Samples;Min_cycle;Max_cycle;Signal;HPM_P1;HPM_P2
2022/09/13 00:01:09;;;;;;;17.17;15.38;;;20.40;90.90;;;;;;4958332;28;92605;-72
2022/09/13 00:03:36;;;;;;;15.93;13.38;;;20.40;91.10;;;;;;4960043;28;89052;-72
2022/09/13 00:06:17;;;;;;;13.90;12.48;;;20.40;91.20;;;;;;4958307;28;89729;-72
2022/09/13 00:08:45;;;;;;;14.25;12.77;;;20.40;91.30;;;;;;4960157;28;89286;-72
2022/09/13 00:11:24;;;;;;;12.90;11.23;;;20.30;91.40;;;;;;4959310;28;89369;-72
2022/09/13 00:13:52;;;;;;;12.82;11.40;;;20.40;91.40;;;;;;4958687;28;88776;-72
2022/09/13 00:16:21;;;;;;;11.13;10.00;;;20.30;91.50;;;;;;4942637;28;90987;-72
2022/09/13 00:18:48;;;;;;;12.20;10.93;;;20.20;91.50;;;;;;4958447;28;89010;-72
2022/09/13 00:21:18;;;;;;;15.43;12.30;;;20.20;91.60;;;;;;4942052;28;90662;-72
2022/09/13 00:23:52;;;;;;;12.57;11.38;;;20.20;91.60;;;;;;4959559;28;88806;-72
2022/09/13 00:26:22;;;;;;;11.63;10.43;;;20.20;91.70;;;;;;4958428;28;91563;-72
2022/09/13 00:28:51;;;;;;;13.27;11.98;;;20.10;91.80;;;;;;4942081;28;89983;-72
2022/09/13 00:31:24;;;;;;;13.13;12.02;;;20.10;91.90;;;;;;4958267;28;91185;-72
2022/09/13 00:33:51;;;;;;;13.73;12.43;;;20.10;92.00;;;;;;4958138;28;91267;-72
2022/09/13 00:36:19;;;;;;;13.70;12.18;;;20.10;92.10;;;;;;4959613;28;88477;-72
2022/09/13 00:38:46;;;;;;;14.07;11.57;;;20.10;92.20;;;;;;4958808;28;89093;-72
2022/09/13 00:41:15;;;;;;;14.05;12.75;;;20.10;92.30;;;;;;4959527;28;88460;-72
2022/09/13 00:43:47;;;;;;;13.38;11.98;;;20.10;92.50;;;;;;4959647;28;88999;-72
2022/09/13 00:46:21;;;;;;;12.57;11.38;;;20.10;92.50;;;;;;4958084;28;88477;-72
2022/09/13 00:48:52;;;;;;;13.85;12.43;;;20.10;92.60;;;;;;4957886;28;89780;-72
2022/09/13 00:51:19;;;;;;;14.10;12.57;;;20.00;92.70;;;;;;4957987;28;92206;-72
2022/09/13 00:53:51;;;;;;;16.63;13.60;;;20.00;92.80;;;;;;4958004;28;91492;-72
2022/09/13 00:56:26;;;;;;;15.75;13.73;;;20.00;92.90;;;;;;4958443;28;88522;-72
2022/09/13 00:59:00;;;;;;;15.68;13.93;;;20.00;93.10;;;;;;4958117;28;88907;-72
2022/09/13 01:01:39;;;;;;;17.48;15.50;;;20.00;93.20;;;;;;4958123;28;89320;-72
2022/09/13 01:04:06;;;;;;;15.85;14.27;;;20.00;93.40;;;;;;4959238;28;89044;-72
2022/09/13 01:06:40;;;;;;;16.20;14.52;;;20.00;93.60;;;;;;4959627;28;88484;-72
2022/09/13 01:09:09;;;;;;;22.20;15.98;;;20.00;93.70;;;;;;4957479;28;93371;-72
2022/09/13 01:11:49;;;;;;;18.85;16.42;;;20.00;93.90;;;;;;4957332;28;92063;-72
2022/09/13 01:14:18;;;;;;;17.67;15.38;;;19.90;94.00;;;;;;4957205;28;91549;-72
2022/09/13 01:16:45;;;;;;;18.83;15.23;;;19.90;94.20;;;;;;4941323;28;92923;-72
2022/09/13 01:19:14;;;;;;;19.83;14.93;;;19.90;94.30;;;;;;4957262;28;89801;-72
2022/09/13 01:21:47;;;;;;;17.33;14.48;;;19.90;94.40;;;;;;4957480;28;100032;-72
2022/09/13 01:24:35;;;;;;;16.35;14.40;;;20.00;94.40;;;;;;4940733;28;91707;-72
2022/09/13 01:27:41;;;;;;;17.27;13.68;;;20.00;94.50;;;;;;4958488;28;91376;-72
2022/09/13 01:31:03;;;;;;;15.70;13.52;;;19.90;94.70;;;;;;4955937;28;88866;-72
2022/09/13 01:33:57;;;;;;;19.58;15.77;;;19.90;94.80;;;;;;4898464;28;89491;-72
2022/09/13 01:36:53;;;;;;;14.80;12.98;;;19.90;94.90;;;;;;4958548;28;89139;-72
2022/09/13 01:39:44;;;;;;;12.75;11.48;;;19.80;95.00;;;;;;4957151;28;90158;-72
2022/09/13 01:42:15;;;;;;;13.95;12.57;;;19.90;95.10;;;;;;4958081;28;89328;-72
2022/09/13 01:44:54;;;;;;;14.40;13.00;;;19.80;95.20;;;;;;4958455;28;89577;-72
2022/09/13 01:47:40;;;;;;;12.82;11.02;;;19.90;95.20;;;;;;4956707;28;92140;-72
2022/09/13 01:50:24;;;;;;;12.23;10.98;;;19.80;95.30;;;;;;4940505;28;91243;-72
2022/09/13 01:53:02;;;;;;;13.98;11.98;;;19.90;95.30;;;;;;4956953;28;91522;-72
2022/09/13 01:55:41;;;;;;;14.05;12.52;;;19.90;95.50;;;;;;4958141;28;89360;-72
2022/09/13 01:58:39;;;;;;;15.10;13.68;;;19.90;95.50;;;;;;4957040;28;88859;-72
2022/09/13 02:01:18;;;;;;;13.65;12.25;;;19.90;95.50;;;;;;4957946;28;90899;-72
2022/09/13 02:03:58;;;;;;;15.70;14.02;;;19.90;95.60;;;;;;4958161;28;88745;-72
2022/09/13 02:06:48;;;;;;;15.90;14.30;;;19.80;95.70;;;;;;4957221;28;89324;-72
2022/09/13 02:09:19;;;;;;;17.05;15.35;;;19.80;95.70;;;;;;4956251;28;92460;-72
2022/09/13 02:11:52;;;;;;;19.52;17.40;;;19.80;95.90;;;;;;4958239;28;88457;-72
2022/09/13 02:14:53;;;;;;;18.20;16.25;;;19.80;96.00;;;;;;4956742;28;88958;-72
2022/09/13 02:17:27;;;;;;;18.42;15.82;;;19.80;96.00;;;;;;4956513;28;90138;-72
2022/09/13 02:19:56;;;;;;;19.58;17.40;;;19.70;96.10;;;;;;4958018;28;89012;-72
2022/09/13 02:22:36;;;;;;;21.27;18.98;;;19.70;96.20;;;;;;4956129;28;88502;-72
2022/09/13 02:25:12;;;;;;;20.38;17.50;;;19.70;96.20;;;;;;4956511;28;91390;-72
2022/09/13 02:27:43;;;;;;;23.52;19.92;;;19.70;96.30;;;;;;4958103;28;89304;-72
2022/09/13 02:30:12;;;;;;;19.50;17.50;;;19.60;96.30;;;;;;4956289;28;91723;-72
2022/09/13 02:32:43;;;;;;;22.55;17.63;;;19.60;96.40;;;;;;4957419;28;88462;-72
2022/09/13 02:35:21;;;;;;;18.90;16.88;;;19.60;96.50;;;;;;4957313;28;89425;-72
2022/09/13 02:37:56;;;;;;;21.88;19.17;;;19.60;96.50;;;;;;4957556;28;89369;-72
2022/09/13 02:40:29;;;;;;;22.50;18.30;;;19.60;96.50;;;;;;4957664;28;88853;-72
2022/09/13 02:43:02;;;;;;;21.30;18.52;;;19.60;96.60;;;;;;4957956;28;88527;-72
2022/09/13 02:45:40;;;;;;;22.63;19.38;;;19.50;96.70;;;;;;4957684;28;89791;-72
2022/09/13 02:48:43;;;;;;;27.15;20.63;;;19.60;96.70;;;;;;4955966;28;92146;-72
2022/09/13 02:51:46;;;;;;;23.05;19.45;;;19.60;97.00;;;;;;4957520;28;89062;-72
2022/09/13 02:54:30;;;;;;;23.75;19.30;;;19.60;96.80;;;;;;4956289;28;88543;-72
2022/09/13 02:57:19;;;;;;;25.63;19.73;;;19.50;96.90;;;;;;4957947;28;88926;-72
2022/09/13 02:59:48;;;;;;;22.08;19.58;;;19.50;97.00;;;;;;4956167;28;90588;-72
2022/09/13 03:02:18;;;;;;;21.70;19.40;;;19.50;97.00;;;;;;4956607;28;88953;-72
2022/09/13 03:04:45;;;;;;;25.50;19.45;;;19.50;97.00;;;;;;4940008;28;91676;-72
2022/09/13 03:07:13;;;;;;;25.08;20.73;;;19.50;97.00;;;;;;4957358;28;88827;-72
2022/09/13 03:09:49;;;;;;;23.38;19.90;;;19.50;97.00;;;;;;4957121;28;89050;-72
2022/09/13 03:12:40;;;;;;;21.42;19.15;;;19.50;97.00;;;;;;4955842;28;90270;-72
2022/09/13 03:15:19;;;;;;;23.50;19.02;;;19.50;97.00;;;;;;4957562;28;88529;-74
2022/09/13 03:18:15;;;;;;;25.48;20.73;;;19.50;97.10;;;;;;4956275;28;88878;-73
2022/09/13 03:21:10;;;;;;;23.70;20.33;;;19.50;97.10;;;;;;4955809;28;91036;-72
2022/09/13 03:23:45;;;;;;;25.77;22.58;;;19.50;97.20;;;;;;4957251;28;88923;-72
2022/09/13 03:26:23;;;;;;;28.63;21.67;;;19.40;97.30;;;;;;4957121;28;88867;-72
2022/09/13 03:29:01;;;;;;;28.70;21.33;;;19.50;97.30;;;;;;4955897;28;89549;-72
2022/09/13 03:31:48;;;;;;;30.70;22.67;;;19.50;97.30;;;;;;4939364;28;91989;-72
2022/09/13 03:34:36;;;;;;;25.40;22.67;;;19.50;97.20;;;;;;4955475;28;90699;-72
2022/09/13 03:37:19;;;;;;;27.17;20.83;;;19.50;97.30;;;;;;4955922;28;88480;-72
2022/09/13 03:39:59;;;;;;;30.05;24.33;;;19.50;97.40;;;;;;4938920;28;91267;-72
2022/09/13 03:42:42;;;;;;;27.95;22.17;;;19.50;97.40;;;;;;4956851;28;89297;-72
2022/09/13 03:45:11;;;;;;;26.17;22.15;;;19.50;97.50;;;;;;4957186;28;91683;-72
2022/09/13 03:47:41;;;;;;;29.08;22.95;;;19.40;97.50;;;;;;4960599;28;88898;-72
2022/09/13 03:50:13;;;;;;;28.38;22.20;;;19.40;97.50;;;;;;4959955;28;88800;-72
2022/09/13 03:52:39;;;;;;;29.40;22.92;;;19.40;97.50;;;;;;4942438;28;95962;-72
2022/09/13 03:55:11;;;;;;;30.08;23.38;;;19.40;97.60;;;;;;4959094;28;89110;-72
2022/09/13 03:57:38;;;;;;;27.42;22.15;;;19.40;97.70;;;;;;4958419;28;100637;-72
2022/09/13 04:00:05;;;;;;;31.23;24.25;;;19.40;97.70;;;;;;4960169;28;88903;-72
2022/09/13 04:02:37;;;;;;;28.02;23.02;;;19.40;97.70;;;;;;4959486;28;89052;-72
2022/09/13 04:05:04;;;;;;;30.05;24.05;;;19.40;97.80;;;;;;4960012;28;88854;-72
2022/09/13 04:07:32;;;;;;;27.45;22.25;;;19.50;97.90;;;;;;4942031;28;91202;-72
2022/09/13 04:09:58;;;;;;;29.88;22.08;;;19.50;97.90;;;;;;4942274;28;91376;-72
2022/09/13 04:12:27;;;;;;;27.70;21.20;;;19.50;97.90;;;;;;4958843;28;89265;-72
2022/09/13 04:14:54;;;;;;;28.25;22.50;;;19.50;98.00;;;;;;4959375;28;99317;-72
2022/09/13 04:17:21;;;;;;;26.40;20.95;;;19.50;98.00;;;;;;4941743;28;91241;-72
2022/09/13 04:19:48;;;;;;;30.02;21.70;;;19.50;98.10;;;;;;4958317;28;92200;-72
2022/09/13 04:22:15;;;;;;;28.63;22.75;;;19.60;98.20;;;;;;4959651;28;88514;-72
2022/09/13 04:24:42;;;;;;;29.58;22.52;;;19.60;98.30;;;;;;4959735;28;89054;-73
2022/09/13 04:27:11;;;;;;;27.73;20.83;;;19.60;98.30;;;;;;4959805;28;88418;-72
2022/09/13 04:29:38;;;;;;;28.10;20.90;;;19.60;98.40;;;;;;4959430;28;89385;-72
2022/09/13 04:32:05;;;;;;;31.05;21.98;;;19.60;98.50;;;;;;4959565;28;89242;-72
2022/09/13 04:34:32;;;;;;;26.50;21.13;;;19.60;98.60;;;;;;4957668;28;101507;-72
2022/09/13 04:36:59;;;;;;;28.85;21.30;;;19.60;98.70;;;;;;4958359;28;91137;-72
2022/09/13 04:39:25;;;;;;;25.70;20.50;;;19.60;98.80;;;;;;4958855;28;89024;-72
2022/09/13 04:41:54;;;;;;;24.98;20.13;;;19.60;98.90;;;;;;4941663;28;91193;-72
2022/09/13 04:44:23;;;;;;;27.75;21.00;;;19.60;99.00;;;;;;4959008;28;89050;-72
2022/09/13 04:46:50;;;;;;;31.17;22.92;;;19.60;99.00;;;;;;4958029;28;91114;-72
2022/09/13 04:49:18;;;;;;;27.40;21.42;;;19.60;99.00;;;;;;4958196;28;88899;-72
2022/09/13 04:51:46;;;;;;;26.15;20.25;;;19.60;99.00;;;;;;4941749;28;91992;-72
2022/09/13 04:54:13;;;;;;;25.90;20.13;;;19.60;99.00;;;;;;4958211;28;88527;-72
2022/09/13 04:56:43;;;;;;;26.73;20.92;;;19.70;99.10;;;;;;4958755;28;88546;-72
2022/09/13 04:59:11;;;;;;;27.48;20.58;;;19.60;99.20;;;;;;4925684;28;91603;-72
2022/09/13 05:01:38;;;;;;;29.67;22.60;;;19.60;99.30;;;;;;4958800;28;89595;-72
2022/09/13 05:04:06;;;;;;;24.83;19.73;;;19.60;99.30;;;;;;4957892;28;88865;-72
2022/09/13 05:06:34;;;;;;;28.42;22.02;;;19.60;99.40;;;;;;4941066;28;98050;-72
2022/09/13 05:09:01;;;;;;;26.52;20.52;;;19.60;99.40;;;;;;4957665;28;89509;-72
2022/09/13 05:11:29;;;;;;;24.90;18.85;;;19.60;99.40;;;;;;4957155;28;92046;-73
2022/09/13 05:13:58;;;;;;;25.95;21.73;;;19.70;99.40;;;;;;4957560;28;90163;-74
2022/09/13 05:16:28;;;;;;;23.38;19.25;;;19.70;99.30;;;;;;4958704;28;88925;-74
2022/09/13 05:18:55;;;;;;;31.55;20.23;;;19.70;99.30;;;;;;4957464;28;91919;-73
2022/09/13 05:21:23;;;;;;;24.55;21.10;;;19.70;99.30;;;;;;4958697;28;88538;-73
2022/09/13 05:23:51;;;;;;;26.75;19.60;;;19.70;99.30;;;;;;4941179;28;91693;-73
2022/09/13 05:26:18;;;;;;;26.45;18.35;;;19.70;99.30;;;;;;4957533;28;88463;-73
2022/09/13 05:28:45;;;;;;;22.30;18.17;;;19.80;99.30;;;;;;4957353;28;88853;-73
2022/09/13 05:31:14;;;;;;;19.90;16.52;;;19.80;99.30;;;;;;4956659;28;103405;-73
2022/09/13 05:33:41;;;;;;;20.40;16.67;;;19.80;99.30;;;;;;4958251;28;88939;-73
2022/09/13 05:36:08;;;;;;;16.42;14.57;;;19.80;99.30;;;;;;4957409;28;88469;-73
2022/09/13 05:38:36;;;;;;;17.98;15.50;;;19.80;99.30;;;;;;4956048;28;91733;-73
2022/09/13 05:41:04;;;;;;;21.25;15.77;;;19.80;99.20;;;;;;4956921;28;92176;-73
2022/09/13 05:43:33;;;;;;;19.23;14.73;;;19.80;99.20;;;;;;4958239;28;88510;-73
2022/09/13 05:46:04;;;;;;;16.48;13.98;;;19.80;99.20;;;;;;4956937;28;89469;-73
2022/09/13 05:48:32;;;;;;;15.73;12.48;;;19.80;99.40;;;;;;4956977;28;88848;-73
2022/09/13 05:51:29;;;;;;;16.50;13.13;;;19.90;99.10;;;;;;4958267;28;89388;-73
2022/09/13 05:53:58;;;;;;;13.50;11.02;;;19.90;98.90;;;;;;4957554;28;88917;-73
2022/09/13 05:56:27;;;;;;;13.95;11.52;;;19.90;99.10;;;;;;4956877;28;91214;-73
2022/09/13 05:58:54;;;;;;;14.43;11.77;;;19.90;99.00;;;;;;4940595;28;91186;-73
2022/09/13 06:01:24;;;;;;;15.63;11.98;;;19.90;99.00;;;;;;4956625;28;91847;-73
2022/09/13 06:03:54;;;;;;;14.38;12.77;;;19.90;99.00;;;;;;4957680;28;88907;-73
2022/09/13 06:06:21;;;;;;;15.30;11.13;;;19.90;99.00;;;;;;4956583;28;91166;-73
2022/09/13 06:08:55;;;;;;;12.43;10.50;;;19.90;98.90;;;;;;4956747;28;104556;-73
2022/09/13 06:11:24;;;;;;;13.55;10.50;;;19.90;98.90;;;;;;4956496;28;92115;-73
2022/09/13 06:13:52;;;;;;;14.18;10.13;;;19.90;98.80;;;;;;4957142;28;102325;-73
2022/09/13 06:16:19;;;;;;;10.90;9.80;;;20.00;98.90;;;;;;4956815;28;89503;-73
2022/09/13 06:18:46;;;;;;;11.38;9.45;;;20.00;98.80;;;;;;4958505;28;88885;-73
2022/09/13 06:21:17;;;;;;;9.27;7.32;;;20.00;98.80;;;;;;4958302;28;88649;-73
2022/09/13 06:23:49;;;;;;;8.80;7.63;;;20.00;98.70;;;;;;4957874;28;88848;-73
2022/09/13 06:26:19;;;;;;;12.20;8.20;;;20.00;98.60;;;;;;4941015;28;91157;-73
2022/09/13 06:28:51;;;;;;;8.68;6.40;;;20.00;98.80;;;;;;4957997;28;88867;-73
2022/09/13 06:31:20;;;;;;;7.80;6.63;;;20.00;98.70;;;;;;4956991;28;91060;-73
2022/09/13 06:33:47;;;;;;;9.43;6.97;;;20.00;98.80;;;;;;4956987;28;88117;-73
2022/09/13 06:36:17;;;;;;;8.88;6.80;;;20.00;98.70;;;;;;4958164;28;95450;-73
2022/09/13 06:38:45;;;;;;;7.97;6.35;;;20.00;98.70;;;;;;4940346;28;92297;-73
2022/09/13 06:41:23;;;;;;;7.35;5.32;;;20.00;98.80;;;;;;4958557;28;88707;-73
2022/09/13 06:43:56;;;;;;;5.70;4.60;;;20.00;98.80;;;;;;4957196;28;89022;-73
2022/09/13 06:46:24;;;;;;;5.43;3.80;;;19.90;98.90;;;;;;4957083;28;88765;-73
2022/09/13 06:48:51;;;;;;;5.38;4.22;;;19.90;98.90;;;;;;4956371;28;89515;-73
2022/09/13 06:51:23;;;;;;;5.93;3.95;;;19.90;98.90;;;;;;4958233;28;89290;-73
2022/09/13 06:53:52;;;;;;;5.75;3.92;;;19.90;98.90;;;;;;4958150;28;88090;-73
2022/09/13 06:56:24;;;;;;;3.72;3.42;;;20.00;99.00;;;;;;4958071;28;88418;-73
2022/09/13 06:58:54;;;;;;;5.53;5.03;;;20.00;99.00;;;;;;4958068;28;88901;-73
2022/09/13 07:01:28;;;;;;;5.05;3.65;;;20.00;98.90;;;;;;4940957;28;91123;-73
2022/09/13 07:04:02;;;;;;;7.55;2.83;;;20.10;98.80;;;;;;4957850;28;88070;-73
2022/09/13 07:06:34;;;;;;;3.75;2.97;;;20.10;98.70;;;;;;4958774;28;88440;-73
2022/09/13 07:09:03;;;;;;;3.43;3.20;;;20.20;98.60;;;;;;4956499;28;91402;-73
2022/09/13 07:11:36;;;;;;;2.85;2.47;;;20.20;98.50;;;;;;4940566;28;88345;-73
2022/09/13 07:14:05;;;;;;;5.20;3.03;;;20.30;98.40;;;;;;4956391;28;88797;-73
2022/09/13 07:16:35;;;;;;;4.43;2.65;;;20.40;98.40;;;;;;4940185;28;102455;-73
2022/09/13 07:19:04;;;;;;;3.83;2.40;;;20.40;98.30;;;;;;4957645;28;88859;-73
2022/09/13 07:21:33;;;;;;;4.35;2.97;;;20.50;98.20;;;;;;4961089;28;88438;-73
2022/09/13 07:24:00;;;;;;;4.35;2.42;;;20.50;98.10;;;;;;4961025;28;87939;-73
2022/09/13 07:26:27;;;;;;;3.85;3.05;;;20.60;98.00;;;;;;4927512;28;89602;-73
2022/09/13 07:28:57;;;;;;;3.50;2.72;;;20.70;97.90;;;;;;4959852;28;88729;-73
2022/09/13 07:31:27;;;;;;;3.83;3.03;;;20.80;97.90;;;;;;4960126;28;88609;-73
2022/09/13 07:33:59;;;;;;;5.00;2.88;;;20.90;97.80;;;;;;4959633;28;88128;-73
2022/09/13 07:36:28;;;;;;;5.38;2.58;;;21.00;97.60;;;;;;4943689;28;91139;-73
2022/09/13 07:38:57;;;;;;;5.25;2.20;;;21.10;97.40;;;;;;4958347;28;89573;-73
2022/09/13 07:41:27;;;;;;;2.75;2.10;;;21.10;97.30;;;;;;4959654;28;91942;-73
2022/09/13 07:43:54;;;;;;;6.07;1.77;;;21.20;97.20;;;;;;4959547;28;89570;-73
2022/09/13 07:46:24;;;;;;;3.38;1.58;;;21.30;97.00;;;;;;4961023;28;88577;-73
2022/09/13 07:48:53;;;;;;;6.07;1.75;;;21.20;96.60;;;;;;4959205;28;91543;-73
2022/09/13 07:51:23;;;;;;;5.68;2.13;;;21.30;96.60;;;;;;4960992;28;90567;-73
2022/09/13 07:53:53;;;;;;;4.97;3.45;;;21.40;96.40;;;;;;4960834;28;88065;-73
2022/09/13 07:56:26;;;;;;;6.53;4.78;;;21.60;96.30;;;;;;4961225;28;87450;-73
2022/09/13 07:58:54;;;;;;;6.88;3.70;;;22.00;96.00;;;;;;4959120;28;91707;-73
2022/09/13 08:01:23;;;;;;;4.22;1.20;;;22.30;94.60;;;;;;4960967;28;88585;-73
2022/09/13 08:03:59;;;;;;;4.90;1.75;;;22.70;93.30;;;;;;4958744;28;88906;-73
2022/09/13 08:06:28;;;;;;;4.07;2.33;;;22.80;92.60;;;;;;4960632;28;91583;-73
2022/09/13 08:08:56;;;;;;;5.38;1.20;;;22.80;93.10;;;;;;4960384;28;88890;-73
2022/09/13 08:11:44;;;;;;;5.07;1.60;;;22.90;92.50;;;;;;4942954;28;99538;-73
2022/09/13 08:14:14;;;;;;;4.63;2.17;;;23.00;92.10;;;;;;4959115;28;89771;-73
2022/09/13 08:16:42;;;;;;;5.00;3.97;;;22.80;92.10;;;;;;4959081;28;91008;-73
2022/09/13 08:19:12;;;;;;;3.83;3.55;;;22.80;92.20;;;;;;4960411;28;89043;-73
2022/09/13 08:21:40;;;;;;;2.28;1.00;;;23.00;92.00;;;;;;4961033;28;88467;-73
2022/09/13 08:24:15;;;;;;;3.05;1.30;;;23.20;91.40;;;;;;4958837;28;89449;-73
2022/09/13 08:26:43;;;;;;;5.28;3.70;;;23.30;91.00;;;;;;4958847;28;91140;-73
2022/09/13 08:29:11;;;;;;;3.58;1.40;;;23.30;91.20;;;;;;4942457;28;92124;-73
2022/09/13 08:31:38;;;;;;;4.32;1.80;;;23.50;90.70;;;;;;4959716;28;89294;-74
2022/09/13 08:34:10;;;;;;;3.15;1.33;;;23.60;90.50;;;;;;4960275;28;88102;-73
2022/09/13 08:36:37;;;;;;;2.83;2.42;;;23.70;90.40;;;;;;4958712;28;89478;-73
2022/09/13 08:39:04;;;;;;;3.17;2.17;;;23.80;89.80;;;;;;4959475;28;93837;-73
2022/09/13 08:41:51;;;;;;;6.03;1.55;;;23.90;89.90;;;;;;4960163;28;88625;-73
2022/09/13 08:44:29;;;;;;;4.53;1.15;;;24.10;88.10;;;;;;4958746;28;88116;-73
2022/09/13 08:47:17;;;;;;;5.95;2.17;;;23.90;87.70;;;;;;4942690;28;90939;-73
2022/09/13 08:49:47;;;;;;;2.42;1.67;;;23.70;87.50;;;;;;4959926;28;88898;-73
2022/09/13 08:52:14;;;;;;;3.90;2.00;;;23.50;88.00;;;;;;4958400;28;91159;-73
2022/09/13 08:54:41;;;;;;;5.75;1.80;;;23.40;88.10;;;;;;4959526;28;88676;-73
2022/09/13 08:57:24;;;;;;;6.60;2.40;;;23.30;87.30;;;;;;4942226;28;88355;-73
2022/09/13 08:59:57;;;;;;;1.23;1.02;;;23.30;87.40;;;;;;4958518;28;88909;-73
2022/09/13 09:02:43;;;;;;;3.10;0.70;;;23.20;87.40;;;;;;4958489;28;88615;-73
2022/09/13 09:05:22;;;;;;;1.75;1.00;;;23.20;86.00;;;;;;4959287;28;88064;-73
2022/09/13 09:08:03;;;;;;;5.22;1.38;;;23.00;85.70;;;;;;4958358;28;91074;-73
2022/09/13 09:10:34;;;;;;;2.78;1.67;;;22.70;85.70;;;;;;4959681;28;88842;-73
2022/09/13 09:13:26;;;;;;;3.25;1.50;;;22.50;86.00;;;;;;4958497;28;89732;-73
2022/09/13 09:16:27;;;;;;;2.35;0.90;;;22.50;85.20;;;;;;4959967;28;88078;-73
2022/09/13 09:18:58;;;;;;;4.43;1.00;;;22.50;85.80;;;;;;4957807;28;88306;-73
2022/09/13 09:21:26;;;;;;;4.65;1.17;;;22.40;86.10;;;;;;4957827;28;91978;-73
2022/09/13 09:23:54;;;;;;;5.68;1.77;;;22.30;85.60;;;;;;4941619;28;90429;-73
2022/09/13 09:26:25;;;;;;;3.53;0.80;;;22.20;85.10;;;;;;4959455;28;87965;-73
2022/09/13 09:28:57;;;;;;;4.35;1.40;;;22.20;84.70;;;;;;4959317;28;88384;-73
2022/09/13 09:31:50;;;;;;;4.38;2.28;;;22.40;86.00;;;;;;4959611;28;88571;-73
2022/09/13 09:34:31;;;;;;;4.57;1.20;;;22.60;84.90;;;;;;4957436;28;90362;-73
2022/09/13 09:37:05;;;;;;;3.80;1.60;;;22.80;85.30;;;;;;4959606;28;88004;-73
2022/09/13 09:39:37;;;;;;;3.55;1.15;;;22.80;83.30;;;;;;4959158;28;87537;-73
2022/09/13 09:42:18;;;;;;;3.20;1.90;;;22.70;82.80;;;;;;4956797;28;91543;-73
2022/09/13 09:45:07;;;;;;;4.38;2.25;;;22.70;83.40;;;;;;4959399;28;88049;-73
2022/09/13 09:47:46;;;;;;;6.75;1.63;;;22.60;84.00;;;;;;4954727;28;89075;-73
2022/09/13 09:50:17;;;;;;;6.07;1.48;;;22.60;82.80;;;;;;4957820;28;88529;-73
2022/09/13 09:52:56;;;;;;;3.55;1.27;;;22.40;83.40;;;;;;4959203;28;88793;-73
2022/09/13 09:55:31;;;;;;;2.80;1.73;;;22.40;83.30;;;;;;4957479;28;88429;-73
2022/09/13 09:58:05;;;;;;;4.07;2.28;;;22.40;83.50;;;;;;4957979;28;88018;-73
2022/09/13 10:00:52;;;;;;;7.03;2.95;;;22.50;81.90;;;;;;4941545;28;89541;-73
2022/09/13 10:03:27;;;;;;;7.03;1.30;;;22.40;81.10;;;;;;4958793;28;88849;-73
2022/09/13 10:06:06;;;;;;;2.90;1.00;;;22.50;80.80;;;;;;4958340;28;88696;-73
2022/09/13 10:08:36;;;;;;;3.92;1.70;;;22.80;80.60;;;;;;4941313;28;89311;-73
2022/09/13 10:11:04;;;;;;;5.65;1.75;;;23.00;80.80;;;;;;4958727;28;89355;-73
2022/09/13 10:13:31;;;;;;;4.38;1.10;;;23.20;80.80;;;;;;4956719;28;106593;-73
2022/09/13 10:16:04;;;;;;;6.43;2.05;;;23.60;80.40;;;;;;4958572;28;89695;-73
2022/09/13 10:18:34;;;;;;;7.80;1.33;;;23.80;79.60;;;;;;4959207;28;87985;-73
2022/09/13 10:21:16;;;;;;;3.60;1.10;;;23.90;79.20;;;;;;4958616;28;89334;-73
2022/09/13 10:23:45;;;;;;;2.97;0.90;;;23.80;77.90;;;;;;4957278;28;91267;-73
2022/09/13 10:26:23;;;;;;;3.70;1.60;;;23.50;78.20;;;;;;4958374;28;88384;-73
2022/09/13 10:29:05;;;;;;;5.38;1.23;;;23.20;78.60;;;;;;4958981;28;88000;-73
2022/09/13 10:31:37;;;;;;;5.10;2.72;;;22.90;78.50;;;;;;4959197;28;89075;-73
2022/09/13 10:34:12;;;;;;;3.80;1.27;;;22.70;79.80;;;;;;4957597;28;88881;-73
2022/09/13 10:36:50;;;;;;;2.40;1.58;;;22.80;80.00;;;;;;4957525;28;88561;-73
2022/09/13 10:39:21;;;;;;;5.10;1.13;;;23.00;79.20;;;;;;4956250;28;89362;-73
2022/09/13 10:42:01;;;;;;;5.95;1.30;;;22.90;77.50;;;;;;4956946;28;91087;-73
2022/09/13 10:44:44;;;;;;;2.45;1.10;;;22.80;76.10;;;;;;4958253;28;88838;-73
2022/09/13 10:47:20;;;;;;;2.42;1.98;;;22.70;76.60;;;;;;4958050;28;90454;-73
2022/09/13 10:49:51;;;;;;;3.63;1.08;;;22.60;78.00;;;;;;4958645;28;88034;-73
2022/09/13 10:52:48;;;;;;;5.05;0.73;;;22.50;77.20;;;;;;4956877;28;91140;-73
2022/09/13 10:55:18;;;;;;;5.70;1.83;;;22.50;76.40;;;;;;4943262;28;91421;-73
2022/09/13 10:57:46;;;;;;;3.72;0.70;;;22.30;77.60;;;;;;4960525;28;91138;-73
2022/09/13 11:00:16;;;;;;;4.47;1.52;;;22.40;77.70;;;;;;4959640;28;98509;-73
2022/09/13 11:03:01;;;;;;;1.88;0.77;;;22.60;77.80;;;;;;4959975;28;96268;-73
2022/09/13 11:05:33;;;;;;;3.85;2.05;;;22.80;77.70;;;;;;4961343;28;89313;-73
2022/09/13 11:08:06;;;;;;;3.17;2.03;;;23.00;76.40;;;;;;4960101;28;92482;-73
2022/09/13 11:10:39;;;;;;;4.75;1.00;;;23.10;75.10;;;;;;4961470;28;87954;-73
2022/09/13 11:13:23;;;;;;;4.00;1.77;;;23.00;74.80;;;;;;4960466;28;88257;-73
2022/09/13 11:16:05;;;;;;;4.13;1.30;;;22.90;74.80;;;;;;4961713;28;88827;-73
2022/09/13 11:18:52;;;;;;;5.45;1.08;;;22.70;74.90;;;;;;4959753;28;88596;-73
2022/09/13 11:21:51;;;;;;;2.72;0.93;;;22.80;73.60;;;;;;4959267;28;89319;-73
2022/09/13 11:24:47;;;;;;;2.85;0.90;;;23.00;74.80;;;;;;4961044;28;89565;-73
2022/09/13 11:27:17;;;;;;;1.90;0.82;;;23.20;73.70;;;;;;4960914;28;88974;-73
2022/09/13 11:30:02;;;;;;;5.00;1.30;;;23.40;73.80;;;;;;4943471;28;91173;-73
2022/09/13 11:32:32;;;;;;;2.80;0.98;;;23.70;72.50;;;;;;4942991;28;89942;-73
2022/09/13 11:35:18;;;;;;;5.88;1.67;;;24.10;71.90;;;;;;4960902;28;88944;-73
2022/09/13 11:37:45;;;;;;;4.43;3.35;;;24.50;71.50;;;;;;4961177;28;89247;-73
2022/09/13 11:40:25;;;;;;;3.45;1.58;;;24.60;70.40;;;;;;4959885;28;96990;-73
2022/09/13 11:43:07;;;;;;;5.03;1.85;;;24.70;71.60;;;;;;4959446;28;90466;-73
2022/09/13 11:46:04;;;;;;;5.10;1.27;;;24.60;72.00;;;;;;4959322;28;91129;-73
2022/09/13 11:48:53;;;;;;;4.82;2.20;;;24.30;71.80;;;;;;4959446;28;88456;-73
2022/09/13 11:51:45;;;;;;;5.50;1.02;;;24.00;73.20;;;;;;4961370;28;88268;-73
2022/09/13 11:54:22;;;;;;;6.10;2.13;;;24.00;73.40;;;;;;4943477;28;89670;-73
2022/09/13 11:56:59;;;;;;;3.13;1.00;;;23.90;73.00;;;;;;4959307;28;93246;-73
2022/09/13 11:59:46;;;;;;;3.65;3.30;;;23.70;72.00;;;;;;4960452;28;89459;-73
2022/09/13 12:02:26;;;;;;;3.15;1.20;;;23.50;72.10;;;;;;4942704;28;92096;-73
2022/09/13 12:04:57;;;;;;;5.40;1.75;;;23.40;72.10;;;;;;4960337;28;87992;-73
2022/09/13 12:08:13;;;;;;;4.10;2.53;;;23.50;72.30;;;;;;4960622;28;88385;-73
2022/09/13 12:10:50;;;;;;;5.13;1.20;;;23.70;71.50;;;;;;4951517;28;88880;-73
2022/09/13 12:13:35;;;;;;;4.07;1.20;;;23.80;71.00;;;;;;4959206;28;90317;-73
2022/09/13 12:16:10;;;;;;;4.68;1.95;;;23.90;71.10;;;;;;4960763;28;88037;-73
2022/09/13 12:18:43;;;;;;;4.78;2.35;;;24.00;70.60;;;;;;4959313;28;90482;-73
2022/09/13 12:21:11;;;;;;;;;;;24.00;70.20;;;;;;4959322;28;91250;-73
2022/09/13 12:23:48;;;;;;;3.25;1.88;;;24.10;70.40;;;;;;4960943;28;96940;-73
2022/09/13 12:26:29;;;;;;;2.83;1.10;;;24.20;69.60;;;;;;4960350;28;88673;-73
2022/09/13 12:29:01;;;;;;;4.20;1.30;;;24.20;68.60;;;;;;4959256;28;88569;-73
2022/09/13 12:31:31;;;;;;;2.47;1.10;;;24.00;68.00;;;;;;4942492;28;90255;-73
2022/09/13 12:33:59;;;;;;;3.45;1.42;;;24.00;69.00;;;;;;4960141;28;89421;-73
2022/09/13 12:36:45;;;;;;;3.53;1.90;;;24.10;69.30;;;;;;4942529;28;90381;-73
2022/09/13 12:39:30;;;;;;;3.00;1.30;;;24.20;68.80;;;;;;4958745;28;88814;-73
2022/09/13 12:42:25;;;;;;;6.57;1.38;;;24.10;69.30;;;;;;4958822;28;91771;-73
2022/09/13 12:44:59;;;;;;;3.85;1.23;;;24.20;69.20;;;;;;4960098;28;87573;-73
2022/09/13 12:47:51;;;;;;;3.50;1.88;;;24.30;69.70;;;;;;4958531;28;89345;-73
2022/09/13 12:50:30;;;;;;;6.15;1.73;;;24.40;69.40;;;;;;4959921;28;90293;-73
2022/09/13 12:53:36;;;;;;;3.15;0.80;;;24.30;68.80;;;;;;4959629;28;89508;-73
2022/09/13 12:56:44;;;;;;;4.28;1.00;;;24.20;68.20;;;;;;4959964;28;89380;-73
2022/09/13 12:59:38;;;;;;;3.38;1.73;;;24.20;69.00;;;;;;4947423;28;89302;-73
2022/09/13 13:02:26;;;;;;;2.63;1.90;;;24.20;68.50;;;;;;4958751;28;88082;-73
2022/09/13 13:04:59;;;;;;;4.63;1.40;;;24.00;68.60;;;;;;4959598;28;88862;-73
2022/09/13 13:07:29;;;;;;;2.87;0.70;;;24.00;69.20;;;;;;4958513;28;89690;-73
2022/09/13 13:09:56;;;;;;;3.53;1.13;;;24.10;68.70;;;;;;4959875;28;88138;-73
2022/09/13 13:12:31;;;;;;;3.83;1.67;;;24.10;68.50;;;;;;4958814;28;88490;-73
2022/09/13 13:15:03;;;;;;;4.90;1.88;;;24.10;68.00;;;;;;4942015;28;90632;-73
2022/09/13 13:17:52;;;;;;;4.47;1.13;;;23.90;68.40;;;;;;4940591;28;91306;-73